Time;durP1;ratioP1;P1;durP2;ratioP2;P2;SDS_P1;SDS_P2;PMS_P1;PMS_P2;Temp;Humidity;BMP_temperature;BMP_pressure;BME280_temperature;BME280_humidity;BME280_pressure;Samples;Min_cycle;Max_cycle;Signal;HPM_P1;HPM_P2
2023/10/18 00:02:16;;;;;;;16.80;5.90;;;;;;;8.52;100.00;101105.91;5201107;28;20049;-79
2023/10/18 00:04:47;;;;;;;14.52;6.25;;;;;;;8.53;100.00;101107.56;5188455;28;20470;-79
2023/10/18 00:07:17;;;;;;;17.02;6.20;;;;;;;8.75;100.00;101103.69;5203213;28;20135;-79
2023/10/18 00:09:50;;;;;;;12.68;5.82;;;;;;;8.74;100.00;101104.69;5201858;28;20103;-80
2023/10/18 00:12:20;;;;;;;12.00;5.53;;;;;;;8.68;100.00;101099.91;5200749;28;20026;-79
2023/10/18 00:14:51;;;;;;;13.20;5.32;;;;;;;8.66;100.00;101096.56;5199233;28;20608;-79
2023/10/18 00:17:21;;;;;;;10.93;5.57;;;;;;;8.55;100.00;101098.44;5204385;28;20029;-79
2023/10/18 00:19:54;;;;;;;12.40;6.15;;;;;;;8.43;100.00;101093.41;5199696;28;20035;-79
2023/10/18 00:22:24;;;;;;;13.20;6.47;;;;;;;8.38;100.00;101087.66;5199839;28;20052;-79
2023/10/18 00:24:55;;;;;;;10.75;5.72;;;;;;;8.35;100.00;101090.59;5198453;28;20507;-79
2023/10/18 00:27:26;;;;;;;11.85;6.10;;;;;;;8.29;100.00;101089.34;5202307;28;20037;-78
2023/10/18 00:29:58;;;;;;;12.15;5.40;;;;;;;8.27;100.00;101080.63;5197783;28;20017;-78
2023/10/18 00:32:28;;;;;;;11.93;5.70;;;;;;;8.26;100.00;101076.28;5201286;28;20037;-80
2023/10/18 00:34:59;;;;;;;9.88;6.20;;;;;;;8.22;100.00;101066.84;5202123;28;20033;-80
2023/10/18 00:37:30;;;;;;;15.27;6.10;;;;;;;8.21;100.00;101068.69;5201058;28;20037;-79
2023/10/18 00:40:06;;;;;;;12.45;6.20;;;;;;;8.19;100.00;101068.00;5199740;28;20029;-80
2023/10/18 00:42:37;;;;;;;10.43;5.53;;;;;;;8.12;100.00;101069.56;5201811;28;20108;-79
2023/10/18 00:45:09;;;;;;;13.73;5.95;;;;;;;8.10;100.00;101066.19;5202349;28;20023;-79
2023/10/18 00:47:40;;;;;;;12.90;6.32;;;;;;;8.09;100.00;101061.84;5203870;28;20034;-81
2023/10/18 00:50:13;;;;;;;10.38;5.70;;;;;;;8.06;100.00;101062.13;5199193;28;20302;-79
2023/10/18 00:52:44;;;;;;;9.50;5.72;;;;;;;8.03;100.00;101057.94;5201353;28;20100;-79
2023/10/18 00:55:15;;;;;;;10.35;5.80;;;;;;;7.97;100.00;101057.63;5201584;28;20464;-80
2023/10/18 00:57:47;;;;;;;13.88;6.75;;;;;;;7.94;100.00;101052.59;5203414;28;20036;-80
2023/10/18 01:00:19;;;;;;;16.40;8.18;;;;;;;7.93;100.00;101054.44;5200891;28;20043;-80
2023/10/18 01:02:53;;;;;;;20.15;10.95;;;;;;;7.97;100.00;101047.78;5201826;28;20399;-79
2023/10/18 01:05:25;;;;;;;25.95;12.13;;;;;;;7.97;100.00;101047.78;5199103;28;20399;-79
2023/10/18 01:07:58;;;;;;;20.88;12.77;;;;;;;7.90;100.00;101044.03;5214517;28;20029;-79
2023/10/18 01:10:30;;;;;;;26.17;14.80;;;;;;;7.86;100.00;101031.94;5200935;28;20025;-78
2023/10/18 01:13:01;;;;;;;24.73;14.20;;;;;;;7.81;100.00;101031.53;5200299;28;20111;-78
2023/10/18 01:15:32;;;;;;;28.02;14.93;;;;;;;7.76;100.00;101023.94;5202619;28;20053;-78
2023/10/18 01:18:04;;;;;;;26.90;14.07;;;;;;;7.70;100.00;101018.34;5198697;28;20116;-78
2023/10/18 01:20:38;;;;;;;23.17;12.57;;;;;;;7.68;100.00;101012.28;5201974;28;20523;-78
2023/10/18 01:23:09;;;;;;;18.70;11.27;;;;;;;7.65;100.00;101013.44;5200839;28;20029;-78
2023/10/18 01:25:47;;;;;;;17.00;8.90;;;;;;;7.62;100.00;101007.53;5201567;28;20067;-78
2023/10/18 01:28:17;;;;;;;17.20;8.32;;;;;;;7.60;100.00;100999.66;5200067;28;20047;-78
2023/10/18 01:30:54;;;;;;;20.13;7.78;;;;;;;7.58;100.00;100995.44;5193236;28;20064;-78
2023/10/18 01:33:26;;;;;;;13.48;7.38;;;;;;;7.56;100.00;100986.75;5201556;28;20539;-78
2023/10/18 01:35:56;;;;;;;13.52;6.65;;;;;;;7.55;100.00;100983.25;5200364;28;20033;-80
2023/10/18 01:38:30;;;;;;;13.02;6.38;;;;;;;7.58;100.00;100985.63;5203434;28;20049;-80
2023/10/18 01:41:08;;;;;;;15.98;6.63;;;;;;;7.60;100.00;100983.66;5199399;28;20495;-79
2023/10/18 01:43:43;;;;;;;12.40;6.60;;;;;;;7.61;100.00;100980.00;5202354;28;20029;-79
2023/10/18 01:46:14;;;;;;;15.63;6.38;;;;;;;7.63;100.00;100975.38;5202640;28;20442;-79
2023/10/18 01:48:50;;;;;;;12.23;5.72;;;;;;;7.63;100.00;100970.03;5200383;28;20033;-78
2023/10/18 01:51:21;;;;;;;13.43;6.07;;;;;;;7.63;100.00;100972.69;5204358;28;20033;-78
2023/10/18 01:53:54;;;;;;;16.55;7.13;;;;;;;7.64;100.00;100978.88;5204625;28;20051;-79
2023/10/18 01:56:25;;;;;;;13.85;5.95;;;;;;;7.66;100.00;100982.22;5201208;28;20075;-79
2023/10/18 01:58:56;;;;;;;13.20;6.20;;;;;;;7.67;100.00;100974.06;5205830;28;20041;-78
2023/10/18 02:01:27;;;;;;;11.52;6.50;;;;;;;7.71;100.00;100971.97;5204656;28;20056;-79
2023/10/18 02:04:04;;;;;;;14.70;6.25;;;;;;;7.70;100.00;100964.94;5203709;28;20044;-79
2023/10/18 02:06:36;;;;;;;13.93;6.43;;;;;;;7.72;100.00;100960.28;5204141;28;20079;-78
2023/10/18 02:09:10;;;;;;;11.05;6.03;;;;;;;7.72;100.00;100963.78;5203649;28;20080;-79
2023/10/18 02:11:48;;;;;;;10.10;5.47;;;;;;;7.68;100.00;100961.56;5205007;28;20033;-79
2023/10/18 02:14:19;;;;;;;13.88;6.57;;;;;;;7.62;100.00;100944.28;5204993;28;20025;-79
2023/10/18 02:16:49;;;;;;;16.13;7.25;;;;;;;7.58;100.00;100940.25;5203594;28;20431;-79
2023/10/18 02:19:21;;;;;;;15.63;6.35;;;;;;;7.64;100.00;100944.16;5205371;28;20148;-78
2023/10/18 02:21:59;;;;;;;12.63;6.88;;;;;;;7.55;100.00;100935.19;5203218;28;20029;-79
2023/10/18 02:24:29;;;;;;;17.77;6.47;;;;;;;7.58;100.00;100928.69;5202021;28;20029;-79
2023/10/18 02:27:01;;;;;;;13.93;6.50;;;;;;;7.63;100.00;100929.09;5204273;28;20052;-80
2023/10/18 02:29:35;;;;;;;14.30;6.93;;;;;;;7.65;100.00;100932.50;5204140;28;20033;-79
2023/10/18 02:32:21;;;;;;;16.27;7.22;;;;;;;7.59;100.00;100930.41;5204329;28;20024;-79
2023/10/18 02:34:52;;;;;;;15.85;7.10;;;;;;;7.65;100.00;100930.66;5203211;28;20037;-79
2023/10/18 02:37:24;;;;;;;18.42;7.22;;;;;;;7.67;100.00;100915.31;5199601;28;20033;-79
2023/10/18 02:40:07;;;;;;;12.93;6.22;;;;;;;7.67;100.00;100918.00;5202455;28;20017;-79
2023/10/18 02:42:37;;;;;;;14.73;6.70;;;;;;;7.68;100.00;100916.16;5205265;28;20033;-80
2023/10/18 02:45:13;;;;;;;20.33;6.95;;;;;;;7.67;100.00;100922.50;5187543;28;20025;-79
2023/10/18 02:47:44;;;;;;;14.18;6.88;;;;;;;7.66;100.00;100916.31;5187816;28;20029;-79
2023/10/18 02:50:15;;;;;;;17.20;7.10;;;;;;;7.65;100.00;100908.47;5202573;28;20455;-79
2023/10/18 02:52:46;;;;;;;13.75;5.88;;;;;;;7.63;100.00;100897.06;5203605;28;20111;-80
2023/10/18 02:55:19;;;;;;;12.05;6.95;;;;;;;7.57;100.00;100889.66;5204187;28;20017;-80
2023/10/18 02:57:49;;;;;;;12.73;6.85;;;;;;;7.63;100.00;100897.94;5176044;28;20065;-81
2023/10/18 03:00:20;;;;;;;12.35;6.05;;;;;;;7.59;100.00;100885.00;5201988;28;20151;-80
2023/10/18 03:02:50;;;;;;;13.82;7.00;;;;;;;7.65;100.00;100879.09;5203884;28;20543;-79
2023/10/18 03:05:22;;;;;;;15.18;7.10;;;;;;;7.62;100.00;100877.53;5203688;28;20037;-79
2023/10/18 03:07:54;;;;;;;14.48;7.63;;;;;;;7.59;100.00;100880.50;5204445;28;20033;-79
2023/10/18 03:10:33;;;;;;;15.25;6.40;;;;;;;7.61;100.00;100872.34;5203858;28;20033;-78
2023/10/18 03:13:03;;;;;;;17.23;6.82;;;;;;;7.62;100.00;100868.69;5203761;28;20502;-79
2023/10/18 03:15:39;;;;;;;16.98;7.72;;;;;;;7.62;100.00;100860.69;5205140;28;20030;-79
2023/10/18 03:18:15;;;;;;;13.23;6.60;;;;;;;7.61;100.00;100865.19;5204410;28;20491;-79
2023/10/18 03:20:46;;;;;;;14.10;6.82;;;;;;;7.66;100.00;100856.72;5204496;28;20049;-80
2023/10/18 03:23:16;;;;;;;16.33;7.13;;;;;;;7.67;100.00;100866.41;5201586;28;20449;-80
2023/10/18 03:25:48;;;;;;;14.30;6.50;;;;;;;7.66;100.00;100844.22;5203734;28;20053;-80
2023/10/18 03:28:23;;;;;;;17.55;6.80;;;;;;;7.70;100.00;100836.75;5204657;28;20049;-80
2023/10/18 03:30:54;;;;;;;;;;;;;;;7.73;100.00;100845.31;5202678;28;20033;-79
2023/10/18 03:33:28;;;;;;;16.83;7.28;;;;;;;7.75;100.00;100840.66;5203319;28;19912;-80
2023/10/18 03:36:17;;;;;;;15.90;7.32;;;;;;;7.79;100.00;100831.38;5204940;28;20024;-79
2023/10/18 03:38:54;;;;;;;21.33;7.72;;;;;;;7.79;100.00;100827.88;5187091;28;20025;-80
2023/10/18 03:41:25;;;;;;;15.70;6.50;;;;;;;7.78;100.00;100831.50;5205668;28;20024;-81
2023/10/18 03:44:07;;;;;;;14.20;7.13;;;;;;;7.81;100.00;100833.03;5193183;28;20452;-80
2023/10/18 03:46:39;;;;;;;17.02;7.85;;;;;;;7.82;100.00;100840.91;5195616;28;20081;-80
2023/10/18 03:49:10;;;;;;;15.43;6.63;;;;;;;7.81;100.00;100833.03;5209132;28;20021;-80
2023/10/18 03:51:40;;;;;;;15.40;6.78;;;;;;;7.80;100.00;100824.19;5194252;28;20064;-80
2023/10/18 03:54:14;;;;;;;15.52;6.57;;;;;;;7.82;100.00;100832.88;5210436;28;20033;-80
2023/10/18 03:56:51;;;;;;;17.02;7.15;;;;;;;7.84;100.00;100827.41;5208434;28;20125;-80
2023/10/18 03:59:22;;;;;;;13.98;7.47;;;;;;;7.85;100.00;100823.75;5207041;28;20088;-80
2023/10/18 04:02:15;;;;;;;12.55;6.47;;;;;;;7.81;100.00;100823.19;5210200;28;20025;-82
2023/10/18 04:04:48;;;;;;;17.35;6.88;;;;;;;7.81;100.00;100820.53;5187703;28;20018;-80
2023/10/18 04:07:24;;;;;;;15.30;6.65;;;;;;;7.83;100.00;100815.91;5205205;28;20126;-80
2023/10/18 04:12:32;;;;;;;17.00;6.72;;;;;;;7.79;100.00;100809.16;5204016;28;20535;-80
2023/10/18 04:15:19;;;;;;;13.70;6.85;;;;;;;7.76;100.00;100804.94;5197318;28;20033;-82
2023/10/18 04:18:02;;;;;;;13.02;6.43;;;;;;;7.77;100.00;100798.63;5199495;28;20115;-79
2023/10/18 04:20:33;;;;;;;10.80;6.10;;;;;;;7.78;100.00;100791.44;5199581;28;20050;-79
2023/10/18 04:23:19;;;;;;;11.10;6.10;;;;;;;7.73;100.00;100793.72;5195017;28;20372;-80
2023/10/18 04:26:00;;;;;;;11.73;6.20;;;;;;;7.70;100.00;100780.69;5195096;28;20072;-80
2023/10/18 04:28:38;;;;;;;13.32;6.72;;;;;;;7.69;100.00;100776.34;5203783;28;20040;-79
2023/10/18 04:31:08;;;;;;;12.23;6.30;;;;;;;7.67;100.00;100773.78;5196194;28;20026;-79
2023/10/18 04:33:43;;;;;;;11.90;6.05;;;;;;;7.63;100.00;100776.91;5200545;28;20030;-80
2023/10/18 04:36:16;;;;;;;15.85;6.13;;;;;;;7.65;100.00;100764.28;5205153;28;20033;-80
2023/10/18 04:38:47;;;;;;;14.68;7.32;;;;;;;7.70;100.00;100762.00;5204697;28;20108;-79
2023/10/18 04:41:28;;;;;;;14.63;6.13;;;;;;;7.70;100.00;100760.16;5200997;28;20018;-80
2023/10/18 04:44:05;;;;;;;10.45;5.55;;;;;;;7.68;100.00;100750.59;5197583;28;20502;-80
2023/10/18 04:46:36;;;;;;;10.38;6.22;;;;;;;7.67;100.00;100751.59;5196677;28;20041;-79
2023/10/18 04:49:50;;;;;;;12.48;6.30;;;;;;;7.68;100.00;100750.59;5198232;28;20048;-80
2023/10/18 04:52:09;;;;;;;14.68;6.50;;;;;;;7.67;100.00;100748.94;5196266;28;20103;-80
2023/10/18 04:54:59;;;;;;;11.65;6.05;;;;;;;7.67;100.00;100741.75;5198915;28;20032;-80
2023/10/18 04:57:34;;;;;;;15.68;6.53;;;;;;;7.66;100.00;100734.75;5199743;28;20029;-80
2023/10/18 05:00:24;;;;;;;13.70;6.72;;;;;;;7.66;100.00;100725.91;5202574;28;20017;-80
2023/10/18 05:03:06;;;;;;;14.35;6.43;;;;;;;7.61;100.00;100721.00;5198970;28;20029;-80
2023/10/18 05:05:52;;;;;;;13.80;7.35;;;;;;;7.58;100.00;100715.13;5200269;28;20018;-80
2023/10/18 05:08:23;;;;;;;13.93;6.80;;;;;;;7.66;100.00;100707.19;5199526;28;20124;-80
2023/10/18 05:11:22;;;;;;;11.43;7.22;;;;;;;7.63;100.00;100705.69;5194402;28;20116;-80
2023/10/18 05:13:48;;;;;;;16.70;6.55;;;;;;;7.61;100.00;100698.81;5195982;28;20044;-80
2023/10/18 05:16:21;;;;;;;12.52;6.63;;;;;;;7.57;100.00;100700.94;5199990;28;20033;-81
2023/10/18 05:18:51;;;;;;;17.30;6.90;;;;;;;7.62;100.00;100695.13;5185459;28;20112;-80
2023/10/18 05:21:22;;;;;;;11.52;6.55;;;;;;;7.58;100.00;100683.94;5198595;28;20112;-80
2023/10/18 05:23:52;;;;;;;13.98;7.35;;;;;;;7.56;100.00;100691.25;5201751;28;20079;-79
2023/10/18 05:26:26;;;;;;;14.38;8.18;;;;;;;7.59;100.00;100682.94;5207664;28;20025;-80
2023/10/18 05:29:03;;;;;;;15.93;7.38;;;;;;;7.59;100.00;100690.13;5203329;28;20025;-80
2023/10/18 05:31:44;;;;;;;15.07;7.97;;;;;;;7.58;100.00;100686.63;5204384;28;20095;-80
2023/10/18 05:42:03;;;;;;;14.73;7.28;;;;;;;7.55;100.00;100673.56;5197434;28;20025;-80
2023/10/18 05:44:33;;;;;;;12.82;7.35;;;;;;;7.59;100.00;100666.09;5203182;28;20029;-80
2023/10/18 05:47:06;;;;;;;15.15;8.32;;;;;;;7.59;100.00;100663.41;5198887;28;20041;-80
2023/10/18 05:49:43;;;;;;;12.38;7.78;;;;;;;7.63;100.00;100659.44;5204190;28;20104;-80
2023/10/18 05:54:44;;;;;;;13.25;7.60;;;;;;;7.69;100.00;100657.00;5203367;28;20025;-80
2023/10/18 05:57:16;;;;;;;13.98;6.90;;;;;;;7.68;100.00;100663.34;5200878;28;20033;-80
2023/10/18 05:59:48;;;;;;;13.27;7.32;;;;;;;7.82;100.00;100659.28;5203058;28;20029;-80
2023/10/18 06:02:23;;;;;;;17.63;7.07;;;;;;;7.78;100.00;100660.59;5204219;28;20112;-80
2023/10/18 06:04:55;;;;;;;11.40;6.88;;;;;;;7.75;100.00;100661.75;5203270;28;20028;-80
2023/10/18 06:07:26;;;;;;;15.05;7.18;;;;;;;7.75;100.00;100653.72;5197996;28;20036;-80
2023/10/18 06:12:27;;;;;;;13.98;6.43;;;;;;;7.76;100.00;100657.25;5200559;28;20029;-80
2023/10/18 06:15:10;;;;;;;16.20;6.00;;;;;;;7.77;100.00;100648.22;5206561;28;20052;-80
2023/10/18 06:17:46;;;;;;;15.43;6.53;;;;;;;7.83;100.00;100650.31;5201316;28;20037;-80
2023/10/18 06:20:27;;;;;;;10.43;5.82;;;;;;;7.79;100.00;100639.09;5197309;28;20029;-79
2023/10/18 06:23:08;;;;;;;14.15;6.72;;;;;;;7.87;100.00;100640.97;5200729;28;20071;-80
2023/10/18 06:25:44;;;;;;;13.52;5.95;;;;;;;7.85;100.00;100637.63;5203169;28;20396;-80
2023/10/18 06:28:24;;;;;;;11.43;6.47;;;;;;;7.91;100.00;100633.50;5188939;28;20620;-79
2023/10/18 06:30:56;;;;;;;12.27;6.10;;;;;;;7.94;100.00;100635.88;5201080;28;20502;-80
2023/10/18 06:33:35;;;;;;;10.30;6.10;;;;;;;7.99;100.00;100631.75;5202545;28;20059;-80
2023/10/18 06:36:12;;;;;;;13.93;6.30;;;;;;;8.02;100.00;100623.41;5200960;28;20029;-80
2023/10/18 06:38:43;;;;;;;11.05;6.20;;;;;;;8.11;100.00;100628.81;5202072;28;20446;-80
2023/10/18 06:41:18;;;;;;;12.80;5.95;;;;;;;8.17;100.00;100625.50;5203075;28;20091;-80
2023/10/18 06:43:49;;;;;;;12.70;6.20;;;;;;;8.21;100.00;100616.19;5205366;28;20522;-80
2023/10/18 06:46:27;;;;;;;11.02;6.35;;;;;;;8.23;100.00;100615.06;5200586;28;20029;-79
2023/10/18 06:48:59;;;;;;;11.63;6.05;;;;;;;8.39;100.00;100617.03;5201841;28;20064;-79
2023/10/18 06:51:40;;;;;;;14.13;5.30;;;;;;;8.43;100.00;100618.38;5202142;28;20109;-80
2023/10/18 06:54:30;;;;;;;12.57;5.65;;;;;;;8.55;100.00;100611.78;5205696;28;20466;-80
2023/10/18 06:57:15;;;;;;;8.90;5.22;;;;;;;8.64;100.00;100622.53;5200549;28;20053;-80
2023/10/18 06:59:48;;;;;;;13.20;5.18;;;;;;;8.75;100.00;100622.25;5195630;28;20021;-80
2023/10/18 07:02:18;;;;;;;10.65;4.57;;;;;;;8.87;100.00;100614.75;5203065;28;20040;-80
2023/10/18 07:04:51;;;;;;;8.73;5.85;;;;;;;8.93;100.00;100609.59;5202295;28;20014;-81
2023/10/18 07:07:22;;;;;;;11.38;4.95;;;;;;;8.96;100.00;100611.97;5201283;28;20084;-81
2023/10/18 07:09:54;;;;;;;10.02;5.18;;;;;;;9.04;100.00;100616.50;5203017;28;20052;-80
2023/10/18 07:12:44;;;;;;;12.15;5.32;;;;;;;9.05;100.00;100602.13;5199329;28;20029;-80
2023/10/18 07:15:16;;;;;;;8.10;5.20;;;;;;;9.07;100.00;100600.13;5200923;28;20076;-80
2023/10/18 07:17:46;;;;;;;11.18;5.38;;;;;;;9.08;100.00;100604.47;5203373;28;20055;-80
2023/10/18 07:20:17;;;;;;;12.55;5.68;;;;;;;9.12;100.00;100610.34;5201496;28;20033;-81
2023/10/18 07:22:55;;;;;;;8.43;4.70;;;;;;;9.19;100.00;100606.03;5203480;28;20025;-80
2023/10/18 07:25:32;;;;;;;10.02;5.60;;;;;;;9.28;100.00;100605.03;5201073;28;20041;-81
2023/10/18 07:28:03;;;;;;;16.33;5.53;;;;;;;9.30;100.00;100605.72;5201522;28;20017;-79
2023/10/18 07:30:38;;;;;;;12.23;5.95;;;;;;;9.40;100.00;100601.06;5199590;28;20026;-79
2023/10/18 07:33:09;;;;;;;13.73;5.68;;;;;;;9.56;100.00;100598.38;5200788;28;20364;-80
2023/10/18 07:35:44;;;;;;;10.27;6.18;;;;;;;9.75;100.00;100591.88;5205618;28;20128;-80
2023/10/18 07:38:25;;;;;;;9.48;5.57;;;;;;;9.90;100.00;100586.69;5203367;28;20026;-80
2023/10/18 07:40:57;;;;;;;8.98;5.35;;;;;;;10.13;100.00;100571.56;5195130;28;20395;-80
2023/10/18 07:43:28;;;;;;;10.45;5.85;;;;;;;10.40;100.00;100582.13;5199534;28;20361;-79
2023/10/18 07:46:05;;;;;;;9.68;5.53;;;;;;;10.74;100.00;100569.25;5203559;28;20036;-80
2023/10/18 07:48:38;;;;;;;8.20;4.47;;;;;;;11.00;100.00;100560.09;5203870;28;20045;-79
2023/10/18 07:51:23;;;;;;;11.90;4.88;;;;;;;11.22;100.00;100561.13;5203080;28;20032;-80
2023/10/18 07:53:54;;;;;;;8.73;5.10;;;;;;;11.42;100.00;100565.03;5198185;28;20025;-80
2023/10/18 07:56:32;;;;;;;12.57;5.15;;;;;;;11.58;100.00;100551.47;5202659;28;20040;-80
2023/10/18 08:01:51;;;;;;;9.40;4.95;;;;;;;12.32;100.00;100545.44;5197469;28;20395;-80
2023/10/18 08:04:22;;;;;;;11.18;5.15;;;;;;;12.43;100.00;100543.13;5200154;28;20032;-81
2023/10/18 08:06:53;;;;;;;8.85;4.68;;;;;;;12.61;100.00;100536.53;5184193;28;20021;-80
2023/10/18 08:09:28;;;;;;;9.30;4.57;;;;;;;12.73;100.00;100535.03;5198111;28;20116;-80
2023/10/18 08:12:07;;;;;;;9.70;4.55;;;;;;;12.68;100.00;100526.69;5203015;28;20049;-80
2023/10/18 08:14:37;;;;;;;6.63;4.60;;;;;;;12.67;100.00;100530.41;5201219;28;20426;-80
2023/10/18 08:17:09;;;;;;;8.68;4.57;;;;;;;12.77;100.00;100517.50;5201550;28;20032;-81
2023/10/18 08:19:47;;;;;;;7.75;4.53;;;;;;;12.77;100.00;100517.50;5196937;28;20499;-81
2023/10/18 08:24:54;;;;;;;7.32;4.60;;;;;;;13.08;100.00;100495.69;5200480;28;20025;-80
2023/10/18 08:27:25;;;;;;;6.95;4.13;;;;;;;13.31;100.00;100500.09;5198201;28;20029;-80
2023/10/18 08:30:04;;;;;;;8.63;4.10;;;;;;;13.38;100.00;100501.81;5201326;28;20080;-80
2023/10/18 08:32:37;;;;;;;8.75;4.63;;;;;;;13.61;100.00;100492.69;5202766;28;20025;-80
2023/10/18 08:35:09;;;;;;;6.00;4.00;;;;;;;13.70;100.00;100494.19;5202151;28;20085;-81
2023/10/18 08:37:39;;;;;;;8.38;4.53;;;;;;;13.99;100.00;100480.53;5199508;28;20036;-81
2023/10/18 08:40:16;;;;;;;10.50;4.57;;;;;;;14.36;100.00;100481.19;5198710;28;20021;-81
2023/10/18 08:42:51;;;;;;;8.13;4.38;;;;;;;14.53;100.00;100487.09;5202056;28;20398;-81
2023/10/18 08:45:23;;;;;;;9.43;4.50;;;;;;;14.72;100.00;100478.25;5199783;28;20132;-81
2023/10/18 08:47:58;;;;;;;6.88;4.07;;;;;;;14.57;100.00;100474.88;5201964;28;20041;-81
2023/10/18 08:50:32;;;;;;;10.33;4.30;;;;;;;14.59;100.00;100467.38;5198786;28;20030;-81
2023/10/18 08:53:03;;;;;;;8.77;3.78;;;;;;;14.60;100.00;100460.13;5200499;28;20040;-81
2023/10/18 08:55:43;;;;;;;9.32;3.88;;;;;;;14.73;100.00;100458.31;5202815;28;20029;-81
2023/10/18 08:58:17;;;;;;;8.48;4.63;;;;;;;14.96;100.00;100451.69;5201325;28;20026;-81
2023/10/18 09:03:29;;;;;;;11.18;4.53;;;;;;;15.15;100.00;100444.69;5198025;28;20040;-81
2023/10/18 09:06:06;;;;;;;9.45;4.25;;;;;;;15.27;100.00;100441.16;5204024;28;20495;-81
2023/10/18 09:08:39;;;;;;;5.80;3.88;;;;;;;15.35;100.00;100445.53;5201580;28;20154;-82
2023/10/18 09:11:21;;;;;;;8.32;3.95;;;;;;;15.45;100.00;100431.59;5196589;28;20018;-82
2023/10/18 09:14:07;;;;;;;5.93;3.70;;;;;;;15.59;100.00;100421.63;5197922;28;20122;-80
2023/10/18 09:16:40;;;;;;;7.28;4.22;;;;;;;15.67;100.00;100421.44;5200963;28;20033;-82
2023/10/18 09:19:10;;;;;;;8.75;3.97;;;;;;;15.73;100.00;100429.53;5180835;28;20029;-82
2023/10/18 09:21:57;;;;;;;10.07;4.15;;;;;;;15.68;100.00;100415.81;5199657;28;20029;-82
2023/10/18 09:24:31;;;;;;;7.80;3.92;;;;;;;15.66;100.00;100415.22;5198224;28;20083;-82
2023/10/18 09:27:02;;;;;;;8.75;3.60;;;;;;;15.66;100.00;100401.69;5200007;28;20375;-81
2023/10/18 09:29:34;;;;;;;12.57;4.68;;;;;;;15.75;100.00;100402.28;5202036;28;20071;-82
2023/10/18 09:32:10;;;;;;;9.70;3.88;;;;;;;15.68;100.00;100405.00;5186504;28;20033;-82
2023/10/18 09:34:42;;;;;;;8.18;3.75;;;;;;;15.63;100.00;100398.53;5201496;28;20064;-81
2023/10/18 09:37:13;;;;;;;8.43;4.20;;;;;;;15.48;100.00;100383.38;5199548;28;20109;-83
2023/10/18 09:39:45;;;;;;;6.75;3.95;;;;;;;15.53;100.00;100386.28;5200662;28;20017;-82
2023/10/18 09:42:16;;;;;;;8.57;3.88;;;;;;;15.68;100.00;100375.25;5184640;28;20026;-82
2023/10/18 09:44:47;;;;;;;13.30;3.95;;;;;;;16.03;100.00;100374.97;5202784;28;20040;-81
2023/10/18 09:47:18;;;;;;;9.20;3.85;;;;;;;16.21;100.00;100372.38;5200605;28;20398;-81
2023/10/18 09:49:50;;;;;;;6.38;3.47;;;;;;;16.24;100.00;100368.41;5201783;28;20040;-81
2023/10/18 09:52:24;;;;;;;9.73;3.63;;;;;;;16.39;100.00;100370.84;5184936;28;20030;-81
2023/10/18 09:55:00;;;;;;;10.95;4.07;;;;;;;16.50;100.00;100371.00;5180013;28;20034;-81
2023/10/18 09:57:35;;;;;;;6.60;3.55;;;;;;;16.51;100.00;100361.00;5202199;28;20439;-80
2023/10/18 10:00:12;;;;;;;9.05;3.90;;;;;;;16.51;100.00;100359.09;5176784;28;20057;-82
2023/10/18 10:02:52;;;;;;;5.90;3.28;;;;;;;16.50;100.00;100365.56;5187015;28;20108;-81
2023/10/18 10:05:25;;;;;;;7.88;3.60;;;;;;;16.31;100.00;100348.41;5201432;28;20041;-80
2023/10/18 10:07:56;;;;;;;11.32;3.80;;;;;;;16.25;100.00;100343.00;5202501;28;20495;-81
2023/10/18 10:10:43;;;;;;;10.20;4.38;;;;;;;16.28;100.00;100350.72;5200953;28;20034;-79
2023/10/18 10:13:25;;;;;;;6.88;3.60;;;;;;;16.30;100.00;100349.44;5203315;28;20033;-80
2023/10/18 10:15:59;;;;;;;7.32;3.67;;;;;;;16.47;100.00;100343.53;5200262;28;20116;-78
2023/10/18 10:18:33;;;;;;;5.37;3.23;;;;;;;16.62;100.00;100335.94;5204872;28;20030;-77
2023/10/18 10:21:08;;;;;;;8.85;3.50;;;;;;;16.76;100.00;100323.16;5202974;28;20308;-77
2023/10/18 10:23:38;;;;;;;8.30;3.30;;;;;;;16.77;100.00;100320.25;5200938;28;20029;-77
2023/10/18 10:26:11;;;;;;;9.90;3.33;;;;;;;17.00;100.00;100302.56;5203849;28;20060;-77
2023/10/18 10:29:09;;;;;;;6.90;3.05;;;;;;;17.23;100.00;100308.19;5203788;28;20029;-76
2023/10/18 10:31:52;;;;;;;7.72;3.55;;;;;;;17.37;100.00;100292.63;5201473;28;20033;-76
2023/10/18 10:34:32;;;;;;;5.85;3.10;;;;;;;17.27;100.00;100293.16;5203337;28;20269;-76
2023/10/18 10:37:05;;;;;;;4.95;2.92;;;;;;;17.43;100.00;100285.47;5197819;28;20514;-76
2023/10/18 10:39:44;;;;;;;6.35;3.10;;;;;;;17.46;100.00;100276.88;5201205;28;20037;-76
2023/10/18 10:42:41;;;;;;;5.97;3.42;;;;;;;17.70;100.00;100280.56;5203181;28;20041;-76
2023/10/18 10:45:30;;;;;;;5.47;2.92;;;;;;;17.80;100.00;100278.19;5200015;28;20064;-76
2023/10/18 10:48:16;;;;;;;5.85;2.85;;;;;;;17.73;100.00;100269.31;5203896;28;20044;-77
2023/10/18 10:50:54;;;;;;;6.25;3.15;;;;;;;17.68;100.00;100261.00;5200063;28;20029;-77
2023/10/18 10:53:34;;;;;;;9.20;3.00;;;;;;;17.51;100.00;100253.44;5198379;28;20341;-78
2023/10/18 10:56:17;;;;;;;7.53;3.80;;;;;;;17.36;100.00;100247.56;5201512;28;20033;-78
2023/10/18 11:01:39;;;;;;;5.20;3.28;;;;;;;17.29;100.00;100238.69;5201749;28;20037;-77
2023/10/18 11:04:24;;;;;;;5.80;2.75;;;;;;;17.39;100.00;100230.03;5200424;28;20026;-77
2023/10/18 11:06:57;;;;;;;7.07;2.72;;;;;;;17.52;100.00;100236.16;5198082;28;20033;-78
2023/10/18 11:09:38;;;;;;;5.03;3.13;;;;;;;17.68;100.00;100212.16;5199477;28;20418;-77
2023/10/18 11:12:11;;;;;;;11.32;2.92;;;;;;;17.75;100.00;100224.63;5200436;28;20197;-77
2023/10/18 11:14:42;;;;;;;7.97;2.75;;;;;;;17.77;100.00;100213.53;5198887;28;20039;-77
2023/10/18 11:19:45;;;;;;;9.23;3.55;;;;;;;17.74;100.00;100203.97;5199855;28;20449;-77
2023/10/18 11:22:19;;;;;;;7.97;3.00;;;;;;;17.75;100.00;100200.19;5197330;28;20281;-76
2023/10/18 11:24:52;;;;;;;7.80;3.00;;;;;;;17.79;100.00;100189.72;5201013;28;20021;-76
2023/10/18 11:27:26;;;;;;;4.80;2.83;;;;;;;17.79;100.00;100192.44;5197818;28;20468;-77
2023/10/18 11:30:11;;;;;;;6.90;2.97;;;;;;;17.93;100.00;100191.19;5198241;28;20116;-77
2023/10/18 11:32:44;;;;;;;5.87;3.00;;;;;;;17.97;100.00;100181.53;5198220;28;20040;-77
2023/10/18 11:35:25;;;;;;;5.57;2.92;;;;;;;17.98;100.00;100172.34;5199719;28;20272;-77
2023/10/18 11:37:56;;;;;;;8.07;2.83;;;;;;;17.96;100.00;100170.91;5200643;28;20060;-76
2023/10/18 11:40:33;;;;;;;5.90;2.90;;;;;;;17.97;100.00;100164.41;5202559;28;20483;-76
2023/10/18 11:43:05;;;;;;;6.95;2.60;;;;;;;18.02;100.00;100157.25;5199879;28;21052;-76
2023/10/18 11:45:38;;;;;;;9.80;3.22;;;;;;;18.07;100.00;100151.09;5193919;28;20029;-76
2023/10/18 11:48:10;;;;;;;5.97;2.90;;;;;;;18.10;100.00;100139.78;5199379;28;20029;-76
2023/10/18 11:50:42;;;;;;;7.10;3.35;;;;;;;18.20;100.00;100137.34;5200272;28;20049;-77
2023/10/18 11:53:14;;;;;;;7.88;3.00;;;;;;;18.14;100.00;100130.13;5197657;28;20097;-77
2023/10/18 11:55:52;;;;;;;9.23;3.15;;;;;;;18.10;100.00;100120.78;5202804;28;20041;-77
2023/10/18 11:58:26;;;;;;;4.60;2.88;;;;;;;18.16;100.00;100119.84;5203431;28;20041;-77
2023/10/18 12:01:00;;;;;;;4.72;3.08;;;;;;;18.18;100.00;100106.88;5202847;28;20022;-77
2023/10/18 12:03:33;;;;;;;8.88;3.10;;;;;;;18.26;100.00;100101.09;5201528;28;20040;-77
2023/10/18 12:06:04;;;;;;;6.82;3.20;;;;;;;18.36;100.00;100105.94;5203418;28;20025;-77
2023/10/18 12:09:09;;;;;;;10.93;3.50;;;;;;;18.37;100.00;100097.59;5201478;28;20041;-77
2023/10/18 12:11:39;;;;;;;8.40;3.50;;;;;;;18.41;100.00;100088.94;5200565;28;20292;-76
2023/10/18 12:14:09;;;;;;;9.07;3.38;;;;;;;18.29;100.00;100081.63;5203329;28;20498;-76
2023/10/18 12:16:41;;;;;;;6.80;3.13;;;;;;;18.28;100.00;100069.13;5197136;28;20037;-76
2023/10/18 12:19:13;;;;;;;10.23;3.40;;;;;;;18.28;100.00;100068.31;5203095;28;20033;-77
2023/10/18 12:21:54;;;;;;;6.18;3.20;;;;;;;18.34;100.00;100056.50;5190596;28;20029;-76